Terminal Aerodrome Forecast
Issued by NWS Sterling, VA

Current Version | Previous Version | Graphics & Text | Print | Product List | Glossary On
Versions: 1 2 3 4 5 6 7 8 9 10 11 12 13 14 15 16 17 18 19 20 21 22 23 24 25 26 27 28 29 30 31 32 33 34
000
FTUS41 KLWX 011442 AAA
TAFIAD
TAF AMD
KIAD 011442Z 0115/0218 21007KT P6SM SCT050 SCT100
     FM011800 22007KT P6SM VCTS BKN050CB
     FM012100 VRB04KT 5SM SHRA VCTS BKN050CB
     FM020100 35005KT 5SM SHRA OVC040
     FM020600 34004KT 6SM BR OVC010
     FM021500 36007KT P6SM OVC020=

USA.gov is the U.S. government's official web portal to all federal, state and local government web resources and services.